Time;durP1;ratioP1;P1;durP2;ratioP2;P2;SDS_P1;SDS_P2;PMS_P1;PMS_P2;Temp;Humidity;BMP_temperature;BMP_pressure;BME280_temperature;BME280_humidity;BME280_pressure;Samples;Min_cycle;Max_cycle;Signal;HPM_P1;HPM_P2
2022/06/05 00:00:13;;;;;;;7.00;3.92;;;21.20;73.50;;;;;;4981075;28;20033;-84
2022/06/05 00:02:54;;;;;;;8.07;4.25;;;21.20;73.70;;;;;;4999785;28;20477;-84
2022/06/05 00:05:23;;;;;;;8.60;4.10;;;21.20;73.70;;;;;;5017232;28;20053;-84
2022/06/05 00:08:28;;;;;;;7.82;4.22;;;21.10;73.90;;;;;;5017325;28;20057;-84
2022/06/05 00:10:58;;;;;;;6.32;4.10;;;21.10;74.10;;;;;;4965920;28;20057;-85
2022/06/05 00:13:54;;;;;;;9.63;4.50;;;21.10;74.10;;;;;;4999594;28;20033;-84
2022/06/05 00:16:25;;;;;;;7.63;4.32;;;21.10;74.10;;;;;;4996684;28;20038;-84
2022/06/05 00:18:51;;;;;;;8.70;3.92;;;21.00;74.20;;;;;;5017135;28;20033;-84
2022/06/05 00:21:17;;;;;;;9.48;4.97;;;21.00;74.40;;;;;;5014893;28;20026;-84
2022/06/05 00:23:43;;;;;;;7.78;4.10;;;21.00;74.40;;;;;;5016907;28;20037;-83
2022/06/05 00:26:37;;;;;;;8.40;4.70;;;20.90;74.40;;;;;;5016509;28;20474;-84
2022/06/05 00:29:09;;;;;;;7.30;4.22;;;20.90;74.80;;;;;;5016884;28;20045;-84
2022/06/05 00:31:50;;;;;;;7.75;4.20;;;20.80;74.80;;;;;;5016781;28;20087;-84
2022/06/05 00:34:15;;;;;;;7.75;4.40;;;20.80;74.90;;;;;;4998818;28;20025;-84
2022/06/05 00:36:53;;;;;;;8.35;4.40;;;20.80;74.80;;;;;;5017114;28;20422;-84
2022/06/05 00:39:50;;;;;;;6.30;4.40;;;20.70;74.80;;;;;;4998907;28;20040;-85
2022/06/05 00:42:20;;;;;;;9.48;4.38;;;20.70;75.10;;;;;;4999464;28;20420;-84
2022/06/05 00:44:54;;;;;;;8.00;4.68;;;20.70;75.30;;;;;;5002944;28;20069;-84
2022/06/05 00:47:24;;;;;;;8.30;4.50;;;20.60;75.40;;;;;;5016320;28;20425;-85
2022/06/05 00:50:10;;;;;;;10.00;4.32;;;20.60;75.70;;;;;;4985035;28;20022;-84
2022/06/05 00:52:39;;;;;;;9.88;5.30;;;20.60;75.90;;;;;;4998705;28;20021;-85
2022/06/05 00:55:07;;;;;;;6.95;4.28;;;20.50;75.90;;;;;;4998342;28;20025;-84
2022/06/05 00:57:35;;;;;;;7.30;4.50;;;20.50;76.00;;;;;;4998716;28;20029;-84
2022/06/05 01:00:09;;;;;;;9.43;4.63;;;20.50;76.00;;;;;;5015682;28;20029;-84
2022/06/05 01:02:35;;;;;;;8.95;4.50;;;20.50;76.10;;;;;;4998722;28;20024;-85
2022/06/05 01:05:01;;;;;;;10.48;4.50;;;20.40;76.30;;;;;;4982010;28;20033;-85
2022/06/05 01:07:27;;;;;;;10.10;4.72;;;20.40;76.50;;;;;;4999088;28;20029;-84
2022/06/05 01:09:53;;;;;;;9.23;4.68;;;20.40;76.50;;;;;;4982161;28;20236;-83
2022/06/05 01:12:30;;;;;;;8.70;4.65;;;20.40;76.50;;;;;;5015686;28;20026;-84
2022/06/05 01:15:11;;;;;;;8.48;5.20;;;20.30;76.80;;;;;;4998350;28;20022;-84
2022/06/05 01:17:58;;;;;;;11.43;5.20;;;20.30;77.00;;;;;;4998224;28;20109;-85
2022/06/05 01:20:24;;;;;;;7.93;4.78;;;20.30;77.00;;;;;;5015651;28;20029;-84
2022/06/05 01:23:02;;;;;;;6.68;4.90;;;20.20;77.00;;;;;;5015799;28;20022;-84
2022/06/05 01:25:34;;;;;;;8.73;5.05;;;20.20;77.10;;;;;;5015832;28;20032;-84
2022/06/05 01:28:06;;;;;;;8.77;4.97;;;20.20;77.40;;;;;;5015736;28;20486;-84
2022/06/05 01:30:44;;;;;;;7.80;5.10;;;20.10;77.60;;;;;;4998258;28;20022;-84
2022/06/05 01:33:17;;;;;;;7.50;4.70;;;20.10;77.60;;;;;;4998283;28;20053;-84
2022/06/05 01:36:01;;;;;;;8.50;5.65;;;20.10;77.70;;;;;;4998151;28;20025;-84
2022/06/05 01:38:57;;;;;;;8.05;4.93;;;20.00;77.60;;;;;;5015858;28;20054;-84
2022/06/05 01:41:47;;;;;;;8.55;5.35;;;20.00;77.90;;;;;;5004480;28;20359;-84
2022/06/05 01:44:19;;;;;;;8.95;5.20;;;20.00;78.20;;;;;;4997884;28;20028;-83
2022/06/05 01:46:45;;;;;;;10.70;5.55;;;19.90;78.20;;;;;;4998192;28;20100;-84
2022/06/05 01:50:15;;;;;;;8.18;5.28;;;19.90;78.50;;;;;;4997973;28;20030;-84
2022/06/05 01:52:52;;;;;;;9.85;5.53;;;19.90;79.20;;;;;;4930427;29;20031;-84
2022/06/05 01:55:21;;;;;;;8.82;5.15;;;19.90;79.30;;;;;;5015933;28;20037;-84
2022/06/05 01:57:49;;;;;;;9.00;5.57;;;19.80;79.40;;;;;;4997738;28;20113;-84
2022/06/05 02:00:17;;;;;;;9.85;5.90;;;19.80;79.70;;;;;;4981309;28;20032;-84
2022/06/05 02:02:51;;;;;;;7.82;5.43;;;19.80;79.80;;;;;;5000225;28;20080;-84
2022/06/05 02:05:23;;;;;;;8.77;5.82;;;19.70;79.90;;;;;;5008663;28;20029;-84
2022/06/05 02:07:52;;;;;;;8.63;5.82;;;19.70;80.00;;;;;;5014454;28;20029;-85
2022/06/05 02:10:27;;;;;;;16.00;6.18;;;19.70;80.10;;;;;;5034333;28;20081;-85
2022/06/05 02:12:54;;;;;;;9.65;6.03;;;19.70;80.40;;;;;;5026505;28;20065;-84
2022/06/05 02:15:21;;;;;;;8.13;5.97;;;19.60;80.40;;;;;;4989217;28;20030;-84
2022/06/05 02:17:47;;;;;;;10.75;5.63;;;19.60;80.40;;;;;;4994059;28;20030;-85
2022/06/05 02:20:14;;;;;;;9.63;6.18;;;19.60;80.50;;;;;;4989720;28;20053;-85
2022/06/05 02:22:46;;;;;;;10.43;5.78;;;19.60;80.60;;;;;;5014554;28;20026;-84
2022/06/05 02:25:14;;;;;;;11.45;6.43;;;19.50;80.90;;;;;;4997281;28;20102;-85
2022/06/05 02:27:40;;;;;;;10.13;6.18;;;19.50;81.20;;;;;;4996966;28;20056;-84
2022/06/05 02:30:08;;;;;;;10.18;6.05;;;19.50;81.50;;;;;;4996926;28;20022;-84
2022/06/05 02:33:04;;;;;;;9.07;6.10;;;19.40;81.80;;;;;;4983708;28;20084;-84
2022/06/05 02:35:45;;;;;;;8.07;5.82;;;19.40;82.00;;;;;;5014812;28;20099;-85
2022/06/05 02:38:33;;;;;;;9.68;5.97;;;19.40;82.00;;;;;;4997745;28;20030;-85
2022/06/05 02:41:10;;;;;;;9.18;6.05;;;19.40;82.30;;;;;;5014418;28;20108;-85
2022/06/05 02:47:05;;;;;;;9.30;6.20;;;19.30;82.70;;;;;;5013024;28;20060;-84
2022/06/05 02:49:55;;;;;;;9.57;6.10;;;19.30;83.10;;;;;;5014053;28;20030;-84
2022/06/05 02:52:23;;;;;;;13.20;6.75;;;19.20;83.20;;;;;;4996469;28;20033;-85
2022/06/05 02:55:00;;;;;;;10.15;6.90;;;19.20;83.40;;;;;;5014273;28;20029;-85
2022/06/05 02:57:26;;;;;;;9.40;6.35;;;19.20;83.70;;;;;;5014068;28;20025;-84
2022/06/05 02:59:52;;;;;;;8.40;6.35;;;19.20;83.80;;;;;;4996695;28;20451;-85
2022/06/05 03:05:02;;;;;;;11.43;7.25;;;19.10;84.30;;;;;;4999172;28;20501;-84
2022/06/05 03:07:27;;;;;;;10.98;6.70;;;19.10;84.40;;;;;;5014145;28;20026;-85
2022/06/05 03:09:53;;;;;;;10.07;6.80;;;19.10;84.70;;;;;;4980470;28;20033;-85
2022/06/05 03:12:18;;;;;;;10.80;6.68;;;19.00;84.80;;;;;;4996270;28;20068;-84
2022/06/05 03:14:44;;;;;;;11.05;6.85;;;19.00;85.00;;;;;;5013927;28;20462;-84
2022/06/05 03:17:10;;;;;;;10.70;6.50;;;19.00;85.10;;;;;;4996377;28;20512;-84
2022/06/05 03:19:35;;;;;;;10.25;6.68;;;19.00;85.20;;;;;;4996309;28;20124;-85
2022/06/05 03:22:01;;;;;;;11.55;6.95;;;19.00;85.40;;;;;;5014016;28;20030;-84
2022/06/05 03:24:27;;;;;;;10.43;6.68;;;18.90;85.70;;;;;;4995944;28;20056;-84
2022/06/05 03:26:52;;;;;;;11.52;6.70;;;18.90;86.40;;;;;;4996224;28;20061;-84
2022/06/05 03:29:18;;;;;;;12.85;7.60;;;18.90;85.90;;;;;;4995581;28;20050;-85
2022/06/05 03:31:44;;;;;;;11.05;7.45;;;18.90;86.20;;;;;;4979857;28;20033;-84
2022/06/05 03:34:10;;;;;;;10.88;7.60;;;18.80;86.30;;;;;;4979017;28;20026;-84
2022/06/05 03:36:35;;;;;;;11.85;7.13;;;18.80;86.50;;;;;;4996214;28;20030;-84
2022/06/05 03:39:01;;;;;;;10.60;7.55;;;18.80;86.80;;;;;;4996050;28;20034;-84
2022/06/05 03:41:26;;;;;;;12.10;6.97;;;18.80;86.90;;;;;;4979554;28;20121;-84
2022/06/05 03:43:52;;;;;;;11.57;7.07;;;18.80;86.90;;;;;;4996191;28;20033;-84
2022/06/05 03:46:18;;;;;;;10.90;7.55;;;18.70;87.10;;;;;;4995711;28;20034;-87
2022/06/05 03:48:44;;;;;;;11.05;7.15;;;18.70;87.10;;;;;;4963846;28;20026;-84
2022/06/05 03:51:22;;;;;;;12.52;7.18;;;18.70;87.40;;;;;;5013476;28;20033;-84
2022/06/05 03:53:48;;;;;;;12.00;7.15;;;18.60;87.70;;;;;;4995823;28;20018;-84
2022/06/05 03:56:18;;;;;;;12.05;7.30;;;18.60;88.00;;;;;;4995944;28;20034;-85
2022/06/05 03:58:44;;;;;;;8.82;6.75;;;18.60;88.30;;;;;;4995989;28;20033;-84
2022/06/05 04:01:11;;;;;;;9.70;7.22;;;18.60;88.50;;;;;;4996153;28;20449;-84
2022/06/05 04:03:38;;;;;;;12.80;7.28;;;18.60;88.70;;;;;;5013555;28;20022;-84
2022/06/05 04:06:09;;;;;;;11.52;7.18;;;18.60;89.00;;;;;;4979657;28;20038;-84
2022/06/05 04:08:35;;;;;;;11.23;7.13;;;18.60;89.30;;;;;;5013465;28;20029;-84
2022/06/05 04:11:12;;;;;;;10.95;8.00;;;18.50;89.30;;;;;;4995769;28;20018;-84
2022/06/05 04:13:38;;;;;;;12.15;7.28;;;18.50;89.20;;;;;;4995624;28;20018;-84
2022/06/05 04:16:22;;;;;;;9.30;7.50;;;18.50;89.30;;;;;;4996136;28;20034;-84
2022/06/05 04:18:49;;;;;;;11.75;7.60;;;18.50;89.50;;;;;;4995933;28;20421;-84
2022/06/05 04:21:20;;;;;;;10.55;7.10;;;18.50;89.50;;;;;;5013458;28;20026;-84
2022/06/05 04:23:47;;;;;;;10.20;7.50;;;18.40;89.60;;;;;;5012908;28;20462;-84
2022/06/05 04:26:16;;;;;;;10.73;7.40;;;18.40;89.70;;;;;;4979523;28;20037;-85
2022/06/05 04:28:43;;;;;;;10.90;7.68;;;18.40;89.80;;;;;;5011944;28;20050;-84
2022/06/05 04:31:27;;;;;;;9.85;7.32;;;18.40;89.80;;;;;;4973361;28;20033;-84
2022/06/05 04:33:56;;;;;;;10.40;7.20;;;18.30;89.90;;;;;;4996048;28;20084;-84
2022/06/05 04:36:22;;;;;;;12.43;7.50;;;18.30;90.00;;;;;;5012987;28;20080;-84
2022/06/05 04:38:48;;;;;;;9.07;7.07;;;18.30;90.30;;;;;;4979378;28;20030;-83
2022/06/05 04:41:15;;;;;;;9.20;7.22;;;18.30;90.20;;;;;;4995414;28;20076;-84
2022/06/05 04:43:41;;;;;;;11.45;7.80;;;18.30;90.30;;;;;;4989637;28;20085;-84
2022/06/05 04:46:07;;;;;;;11.50;7.65;;;18.30;90.40;;;;;;5006862;28;20072;-85
2022/06/05 04:48:34;;;;;;;9.52;7.32;;;18.30;90.50;;;;;;4997943;28;20141;-84
2022/06/05 04:51:06;;;;;;;12.32;7.47;;;18.30;90.60;;;;;;4998828;28;20130;-84
2022/06/05 04:53:32;;;;;;;12.57;7.35;;;18.20;90.60;;;;;;5016474;28;20458;-84
2022/06/05 04:55:58;;;;;;;10.23;7.72;;;18.30;90.70;;;;;;4998539;28;20045;-84
2022/06/05 04:58:23;;;;;;;11.43;7.85;;;18.30;90.80;;;;;;4998762;28;20111;-84
2022/06/05 05:00:49;;;;;;;11.02;7.40;;;18.30;91.00;;;;;;4999067;28;20061;-84
2022/06/05 05:03:15;;;;;;;10.15;7.95;;;18.20;91.00;;;;;;4998935;28;20022;-84
2022/06/05 05:05:41;;;;;;;10.93;7.97;;;18.30;91.10;;;;;;4998556;28;20120;-84
2022/06/05 05:08:07;;;;;;;11.57;7.40;;;18.20;91.00;;;;;;4998505;28;20030;-84
2022/06/05 05:10:33;;;;;;;11.43;7.70;;;18.30;91.00;;;;;;5016269;28;20049;-84
2022/06/05 05:12:59;;;;;;;9.52;7.60;;;18.20;91.10;;;;;;4966813;28;20034;-84
2022/06/05 05:15:24;;;;;;;10.90;7.68;;;18.20;91.20;;;;;;4998510;28;20037;-84
2022/06/05 05:17:50;;;;;;;11.23;7.72;;;18.20;91.20;;;;;;4982075;28;20025;-84
2022/06/05 05:20:16;;;;;;;11.15;7.15;;;18.20;91.20;;;;;;4998330;28;20113;-84
2022/06/05 05:22:42;;;;;;;11.10;7.68;;;18.20;91.30;;;;;;4978768;28;20026;-84
2022/06/05 05:25:10;;;;;;;11.73;7.75;;;18.20;91.20;;;;;;4973883;28;20096;-84
2022/06/05 05:27:36;;;;;;;11.82;7.97;;;18.20;91.30;;;;;;4984018;28;20391;-83
2022/06/05 05:30:07;;;;;;;12.93;8.27;;;18.20;91.40;;;;;;5016031;28;20026;-85
2022/06/05 05:32:32;;;;;;;12.43;7.85;;;18.20;91.50;;;;;;5015851;28;20025;-85
2022/06/05 05:34:58;;;;;;;9.38;7.43;;;18.20;91.60;;;;;;5014683;28;20036;-84
2022/06/05 05:37:24;;;;;;;12.18;8.20;;;18.20;91.60;;;;;;5015535;28;20109;-85
2022/06/05 05:42:34;;;;;;;11.25;7.57;;;18.20;91.60;;;;;;5014381;28;20041;-86
2022/06/05 05:44:59;;;;;;;11.40;7.65;;;18.20;91.70;;;;;;5014158;28;20038;-84
2022/06/05 05:47:28;;;;;;;12.40;8.02;;;18.20;91.70;;;;;;4997987;28;20037;-84
2022/06/05 05:49:57;;;;;;;12.10;8.68;;;18.10;91.80;;;;;;5020240;28;20022;-85
2022/06/05 05:52:23;;;;;;;11.43;8.57;;;18.10;91.80;;;;;;5024046;28;20026;-84
2022/06/05 05:54:51;;;;;;;12.85;8.65;;;18.10;91.80;;;;;;5012894;28;20029;-84
2022/06/05 05:57:17;;;;;;;9.52;7.57;;;18.10;91.80;;;;;;5029817;28;20030;-84
2022/06/05 05:59:43;;;;;;;11.07;8.70;;;18.10;91.90;;;;;;5023507;28;20052;-85
2022/06/05 06:02:13;;;;;;;11.57;8.02;;;18.10;91.90;;;;;;5024122;28;20022;-85
2022/06/05 06:04:39;;;;;;;;;;;18.10;92.00;;;;;;5027727;28;20033;-84
2022/06/05 06:07:05;;;;;;;10.95;8.52;;;18.10;92.10;;;;;;5018906;28;19905;-85
2022/06/05 06:09:33;;;;;;;11.30;8.10;;;18.10;92.10;;;;;;5015091;28;20453;-84
2022/06/05 06:11:59;;;;;;;11.52;8.55;;;18.00;92.10;;;;;;4998937;28;20029;-84
2022/06/05 06:14:25;;;;;;;9.85;8.00;;;18.00;92.20;;;;;;5013997;28;20018;-84
2022/06/05 06:16:50;;;;;;;10.85;7.97;;;18.10;92.40;;;;;;5014308;28;20084;-85
2022/06/05 06:19:16;;;;;;;11.52;8.23;;;18.00;92.40;;;;;;4995766;28;20034;-84
2022/06/05 06:21:42;;;;;;;13.48;7.75;;;18.00;92.50;;;;;;4992853;28;20076;-85
2022/06/05 06:24:08;;;;;;;12.00;8.00;;;18.00;92.60;;;;;;5014642;28;20022;-84
2022/06/05 06:26:34;;;;;;;12.68;8.15;;;18.10;92.70;;;;;;4981591;28;20466;-84
2022/06/05 06:28:59;;;;;;;10.60;7.57;;;18.10;92.80;;;;;;4997825;28;20057;-84
2022/06/05 06:31:25;;;;;;;11.35;7.72;;;18.10;92.90;;;;;;5014076;28;20053;-84
2022/06/05 06:33:51;;;;;;;12.50;8.30;;;18.10;93.00;;;;;;5014327;28;20026;-84
2022/06/05 06:36:18;;;;;;;10.18;7.80;;;18.10;93.00;;;;;;4998412;28;20037;-84
2022/06/05 06:38:44;;;;;;;12.02;8.43;;;18.10;92.90;;;;;;5014193;28;20470;-85
2022/06/05 06:41:16;;;;;;;9.70;7.35;;;18.10;93.00;;;;;;5014173;28;20022;-84
2022/06/05 06:43:44;;;;;;;9.73;7.80;;;18.10;93.00;;;;;;5014355;28;20018;-85
2022/06/05 06:46:11;;;;;;;10.48;7.63;;;18.10;93.10;;;;;;5014353;28;20481;-83
2022/06/05 06:48:37;;;;;;;9.65;7.95;;;18.20;93.10;;;;;;5015070;28;20107;-84
2022/06/05 06:51:03;;;;;;;10.95;7.30;;;18.20;93.10;;;;;;5013756;28;20462;-85
2022/06/05 06:53:30;;;;;;;11.43;7.60;;;18.20;93.10;;;;;;5014809;28;20096;-84
2022/06/05 06:55:56;;;;;;;9.80;7.30;;;18.20;93.20;;;;;;5013786;28;20037;-84
2022/06/05 06:58:22;;;;;;;10.95;7.78;;;18.20;93.30;;;;;;5014995;28;20029;-84
2022/06/05 07:00:48;;;;;;;10.82;7.60;;;18.20;93.30;;;;;;5017155;28;20117;-84
2022/06/05 07:03:13;;;;;;;9.35;7.35;;;18.20;93.40;;;;;;5014122;28;20034;-84
2022/06/05 07:05:40;;;;;;;10.30;6.90;;;18.20;93.40;;;;;;5014730;28;20037;-84
2022/06/05 07:08:09;;;;;;;10.40;7.07;;;18.30;93.40;;;;;;5016228;28;20030;-84
2022/06/05 07:10:35;;;;;;;8.45;7.07;;;18.30;93.50;;;;;;5015851;28;20018;-84
2022/06/05 07:13:01;;;;;;;10.82;7.03;;;18.30;93.50;;;;;;5013681;28;20022;-84
2022/06/05 07:15:33;;;;;;;9.77;7.10;;;18.30;93.50;;;;;;5013996;28;20030;-84
2022/06/05 07:18:00;;;;;;;9.52;6.43;;;18.40;93.60;;;;;;4998416;28;20033;-84
2022/06/05 07:20:26;;;;;;;9.50;7.05;;;18.40;93.70;;;;;;5014788;28;20029;-83
2022/06/05 07:22:52;;;;;;;9.52;6.80;;;18.40;93.70;;;;;;4997628;28;20022;-84
2022/06/05 07:25:18;;;;;;;8.10;6.30;;;18.50;93.70;;;;;;4997708;28;20466;-84
2022/06/05 07:27:43;;;;;;;11.98;7.30;;;18.40;93.70;;;;;;5013465;28;20137;-86
2022/06/05 07:30:12;;;;;;;7.82;6.72;;;18.50;93.60;;;;;;5014862;28;20372;-84
2022/06/05 07:32:38;;;;;;;8.65;6.60;;;18.50;93.60;;;;;;5013695;28;20026;-84
2022/06/05 07:35:04;;;;;;;9.18;6.60;;;18.60;93.60;;;;;;5013742;28;20045;-84
2022/06/05 07:37:29;;;;;;;9.82;6.63;;;18.60;93.70;;;;;;4996576;28;20026;-84
2022/06/05 07:39:55;;;;;;;9.13;6.72;;;18.60;93.60;;;;;;5012741;28;20049;-85
2022/06/05 07:42:21;;;;;;;8.48;6.47;;;18.70;93.70;;;;;;4988768;28;20037;-86
2022/06/05 07:44:46;;;;;;;7.85;6.20;;;18.70;93.70;;;;;;5005769;28;20030;-85
2022/06/05 07:47:12;;;;;;;6.80;5.93;;;18.70;93.60;;;;;;4988090;28;20022;-85
2022/06/05 07:49:39;;;;;;;7.65;6.38;;;18.70;93.60;;;;;;4986486;28;20068;-86
2022/06/05 07:54:50;;;;;;;7.78;6.03;;;18.80;93.60;;;;;;5000499;28;20072;-85
2022/06/05 07:57:20;;;;;;;8.13;5.80;;;18.80;93.50;;;;;;5012737;28;20117;-86
2022/06/05 07:59:48;;;;;;;8.17;5.77;;;18.80;93.50;;;;;;5014050;28;20527;-84
2022/06/05 08:02:20;;;;;;;8.60;6.07;;;18.90;93.50;;;;;;5015312;28;20022;-84
2022/06/05 08:04:48;;;;;;;7.47;5.80;;;18.90;93.50;;;;;;5013378;28;20029;-84
2022/06/05 08:07:18;;;;;;;7.55;5.85;;;18.90;93.50;;;;;;5013416;28;20026;-85
2022/06/05 08:09:44;;;;;;;7.85;5.93;;;19.00;93.50;;;;;;5012777;28;20109;-85
2022/06/05 08:12:12;;;;;;;6.63;5.65;;;19.00;93.50;;;;;;5011967;28;20088;-84
2022/06/05 08:14:40;;;;;;;9.68;6.70;;;19.00;93.40;;;;;;5012348;28;20057;-84
2022/06/05 08:17:09;;;;;;;7.07;5.55;;;19.10;93.40;;;;;;5011688;28;20026;-84
2022/06/05 08:19:36;;;;;;;10.98;5.93;;;19.10;93.40;;;;;;5012043;28;20026;-84
2022/06/05 08:22:03;;;;;;;6.38;5.43;;;19.20;93.50;;;;;;5014981;28;20038;-84
2022/06/05 08:24:28;;;;;;;7.13;5.30;;;19.20;93.40;;;;;;5014574;28;20022;-84
2022/06/05 08:26:54;;;;;;;7.95;5.80;;;19.30;93.50;;;;;;5013184;28;20036;-84
2022/06/05 08:29:20;;;;;;;10.05;5.70;;;19.30;93.40;;;;;;4997565;28;20038;-84
2022/06/05 08:31:46;;;;;;;6.45;5.47;;;19.40;93.50;;;;;;4999069;28;20026;-85
2022/06/05 08:34:12;;;;;;;6.72;5.80;;;19.40;93.70;;;;;;5016942;28;20026;-85
2022/06/05 08:36:38;;;;;;;6.80;5.90;;;19.40;93.50;;;;;;4999362;28;20470;-85
2022/06/05 08:41:57;;;;;;;6.85;5.25;;;19.60;93.60;;;;;;5016119;28;20111;-86
2022/06/05 08:44:42;;;;;;;9.52;5.97;;;19.60;93.50;;;;;;5017380;28;20105;-85
2022/06/05 08:47:11;;;;;;;7.15;5.60;;;19.70;93.50;;;;;;5016097;28;20022;-85
2022/06/05 08:49:47;;;;;;;7.38;5.68;;;19.70;93.60;;;;;;5016456;28;20034;-85
2022/06/05 08:52:18;;;;;;;8.25;5.60;;;19.70;93.50;;;;;;5015784;28;20133;-86
2022/06/05 08:55:06;;;;;;;9.10;5.38;;;19.80;93.60;;;;;;5016037;28;20092;-89
2022/06/05 08:57:47;;;;;;;7.53;5.07;;;19.90;93.60;;;;;;5015716;28;20059;-86
2022/06/05 09:00:25;;;;;;;7.63;5.78;;;19.90;93.70;;;;;;5015891;28;20073;-86
2022/06/05 09:02:57;;;;;;;6.82;5.30;;;20.00;93.70;;;;;;5016180;28;20017;-87
2022/06/05 09:05:45;;;;;;;7.35;6.10;;;20.00;93.70;;;;;;5016019;28;20533;-86
2022/06/05 09:08:15;;;;;;;8.43;6.22;;;20.10;93.80;;;;;;5015911;28;20022;-86
2022/06/05 09:10:46;;;;;;;7.57;5.72;;;20.20;94.00;;;;;;5015977;28;20030;-86
2022/06/05 09:13:14;;;;;;;9.07;5.97;;;20.20;94.00;;;;;;5017593;28;20053;-87
2022/06/05 09:15:59;;;;;;;7.22;5.90;;;20.30;94.10;;;;;;5003000;28;20069;-89
2022/06/05 09:18:35;;;;;;;7.15;5.97;;;20.40;94.10;;;;;;5018143;28;20374;-86
2022/06/05 09:21:23;;;;;;;10.05;6.45;;;20.40;94.10;;;;;;5017144;28;20022;-87
2022/06/05 09:24:10;;;;;;;6.72;5.55;;;20.50;94.20;;;;;;5016941;28;20022;-86
2022/06/05 09:26:43;;;;;;;8.55;5.93;;;20.60;94.20;;;;;;5017459;28;20038;-87
2022/06/05 09:29:51;;;;;;;7.32;5.65;;;20.60;94.20;;;;;;5015014;28;20046;-86
2022/06/05 09:32:43;;;;;;;6.40;5.57;;;20.70;94.40;;;;;;5015659;28;20446;-86
2022/06/05 09:35:11;;;;;;;7.28;5.60;;;20.80;94.30;;;;;;5008377;28;20045;-87
2022/06/05 09:37:48;;;;;;;13.10;5.68;;;20.80;94.30;;;;;;5026557;28;20018;-85
2022/06/05 09:40:37;;;;;;;6.68;5.90;;;20.90;94.40;;;;;;5037829;28;20033;-86
2022/06/05 09:43:25;;;;;;;5.88;4.95;;;21.00;94.60;;;;;;5025975;28;20018;-88
2022/06/05 09:46:33;;;;;;;7.95;5.50;;;21.00;94.10;;;;;;5035982;28;20038;-88
2022/06/05 09:49:31;;;;;;;6.38;5.10;;;21.10;93.90;;;;;;5032102;28;20026;-87
2022/06/05 09:52:03;;;;;;;6.25;5.20;;;21.20;93.70;;;;;;5018469;28;20034;-87
2022/06/05 09:54:31;;;;;;;5.95;4.30;;;21.20;93.40;;;;;;5021073;28;20048;-87
2022/06/05 10:00:43;;;;;;;5.40;4.20;;;21.30;93.30;;;;;;5018330;28;20548;-86
2022/06/05 10:03:29;;;;;;;8.07;5.07;;;21.30;93.20;;;;;;5016032;28;20029;-87
2022/06/05 10:06:24;;;;;;;;;;;;;;;;;;;;;
2022/06/05 10:08:58;;;;;;;5.35;4.38;;;21.40;92.80;;;;;;5006683;28;20088;-87
2022/06/05 10:11:31;;;;;;;7.50;5.22;;;21.40;92.70;;;;;;5015880;28;20551;-87
2022/06/05 10:14:06;;;;;;;5.13;4.63;;;21.50;92.70;;;;;;5005584;28;20014;-87
2022/06/05 10:16:46;;;;;;;8.43;5.10;;;21.50;92.70;;;;;;5016714;28;20034;-87
2022/06/05 10:19:14;;;;;;;4.88;4.30;;;21.60;92.70;;;;;;5012158;28;20092;-87
2022/06/05 10:21:58;;;;;;;7.20;3.97;;;21.60;92.60;;;;;;5014220;28;20041;-87
2022/06/05 10:24:46;;;;;;;4.75;4.15;;;21.60;92.60;;;;;;5013820;28;20037;-87
2022/06/05 10:27:15;;;;;;;6.13;4.70;;;21.60;92.50;;;;;;5010251;28;20084;-87
2022/06/05 10:29:48;;;;;;;6.28;4.57;;;21.60;92.40;;;;;;5015014;28;20053;-88
2022/06/05 10:32:25;;;;;;;7.68;4.68;;;21.60;92.20;;;;;;4996531;28;20013;-89
2022/06/05 10:35:18;;;;;;;5.22;4.38;;;21.70;91.90;;;;;;4997373;28;20417;-87
2022/06/05 10:37:48;;;;;;;5.85;4.40;;;21.70;91.90;;;;;;4986162;28;20359;-87
2022/06/05 10:40:24;;;;;;;4.53;3.70;;;21.80;92.00;;;;;;5014387;28;20076;-87
2022/06/05 10:43:01;;;;;;;5.82;4.15;;;21.80;92.10;;;;;;4996905;28;20437;-87
2022/06/05 10:45:37;;;;;;;6.32;4.72;;;21.80;92.10;;;;;;4996960;28;20022;-87
2022/06/05 10:48:35;;;;;;;6.18;4.43;;;21.80;92.00;;;;;;4986847;28;20076;-88
2022/06/05 10:51:38;;;;;;;5.30;4.10;;;21.90;91.90;;;;;;4997171;28;20033;-87
2022/06/05 10:54:29;;;;;;;4.80;4.30;;;21.90;91.90;;;;;;4996663;28;20029;-87
2022/06/05 10:57:13;;;;;;;4.85;4.35;;;21.90;91.90;;;;;;5014420;28;20041;-87
2022/06/05 11:00:02;;;;;;;7.05;4.32;;;21.90;92.00;;;;;;4996356;28;20033;-88
2022/06/05 11:02:43;;;;;;;5.63;4.20;;;21.90;91.90;;;;;;5001437;28;20427;-88
2022/06/05 11:05:21;;;;;;;;;;;22.00;92.00;;;;;;4996242;28;20033;-88
2022/06/05 11:08:04;;;;;;;6.82;4.25;;;22.00;92.00;;;;;;5004045;28;19905;-87
2022/06/05 11:13:39;;;;;;;5.53;4.82;;;22.00;91.80;;;;;;5013888;28;20028;-87
2022/06/05 11:16:16;;;;;;;7.22;4.45;;;22.00;91.60;;;;;;4996557;28;20088;-87
2022/06/05 11:18:57;;;;;;;7.00;4.88;;;22.10;91.60;;;;;;5014083;28;20042;-88
2022/06/05 11:21:23;;;;;;;9.20;5.10;;;22.10;91.60;;;;;;4987939;28;20473;-87
2022/06/05 11:23:53;;;;;;;5.93;4.95;;;22.10;91.40;;;;;;4979990;28;20121;-87
2022/06/05 11:26:28;;;;;;;5.28;4.30;;;22.10;91.30;;;;;;4996021;28;20021;-88
2022/06/05 11:29:21;;;;;;;5.82;4.47;;;22.10;91.20;;;;;;5009227;28;20494;-88
2022/06/05 11:31:56;;;;;;;5.07;4.28;;;22.20;91.20;;;;;;5005934;28;20053;-87
2022/06/05 11:34:43;;;;;;;5.82;4.45;;;22.20;91.20;;;;;;5012357;28;20497;-86
2022/06/05 11:37:15;;;;;;;7.50;4.57;;;22.20;91.30;;;;;;5006856;28;20100;-87
2022/06/05 11:40:22;;;;;;;5.85;4.32;;;22.20;91.30;;;;;;5012611;28;20092;-86
2022/06/05 11:43:27;;;;;;;6.13;4.43;;;22.20;91.30;;;;;;5006496;28;20492;-87
2022/06/05 11:46:08;;;;;;;6.40;4.55;;;22.20;91.40;;;;;;5012500;28;20029;-88
2022/06/05 11:48:39;;;;;;;;;;;22.20;91.50;;;;;;5007212;28;20030;-87
2022/06/05 11:51:30;;;;;;;4.47;4.05;;;22.30;91.50;;;;;;5010949;28;19913;-87
2022/06/05 11:54:20;;;;;;;6.57;5.00;;;22.30;91.60;;;;;;5011606;28;20017;-87
2022/06/05 11:57:24;;;;;;;7.93;5.13;;;22.30;91.60;;;;;;5027643;28;20014;-87
2022/06/05 12:00:01;;;;;;;8.93;5.00;;;22.30;91.60;;;;;;5014186;28;20112;-86
2022/06/05 12:02:59;;;;;;;6.50;5.30;;;22.30;91.80;;;;;;5017952;28;20490;-86
2022/06/05 12:05:50;;;;;;;6.38;5.10;;;22.30;92.00;;;;;;5017775;28;20034;-86
2022/06/05 12:08:24;;;;;;;9.38;5.82;;;22.30;92.40;;;;;;5017407;28;20024;-86
2022/06/05 12:10:59;;;;;;;6.60;5.55;;;22.30;92.60;;;;;;5017943;28;20029;-85
2022/06/05 12:14:09;;;;;;;10.23;6.72;;;22.30;92.80;;;;;;5017700;28;20053;-86
2022/06/05 12:16:53;;;;;;;9.25;8.35;;;22.30;94.10;;;;;;4960559;28;20122;-85
2022/06/05 12:19:21;;;;;;;9.35;7.40;;;22.30;94.40;;;;;;4959484;28;20027;-86
2022/06/05 12:22:09;;;;;;;8.75;7.72;;;22.20;94.80;;;;;;4994202;28;20493;-86
2022/06/05 12:25:15;;;;;;;8.27;7.45;;;22.20;95.20;;;;;;5016022;28;20054;-86
2022/06/05 12:27:53;;;;;;;9.55;8.25;;;22.20;95.70;;;;;;5004448;28;20064;-86
2022/06/05 12:30:30;;;;;;;8.80;7.93;;;22.10;96.10;;;;;;4999513;28;20528;-87
2022/06/05 12:33:31;;;;;;;8.88;7.78;;;22.20;96.40;;;;;;4999618;28;20036;-86
2022/06/05 12:36:10;;;;;;;9.73;8.75;;;22.10;96.70;;;;;;4996905;28;20564;-86
2022/06/05 12:38:52;;;;;;;10.23;9.05;;;22.10;97.10;;;;;;4999145;28;20024;-86
2022/06/05 12:41:21;;;;;;;10.40;9.40;;;22.10;97.50;;;;;;5018107;28;20053;-86
2022/06/05 12:43:56;;;;;;;10.38;9.38;;;22.10;97.80;;;;;;4999979;28;20026;-87
2022/06/05 12:46:44;;;;;;;11.35;10.23;;;22.10;98.10;;;;;;4996853;28;20489;-86
2022/06/05 12:49:28;;;;;;;10.35;9.45;;;22.10;98.40;;;;;;4998647;28;20339;-85
2022/06/05 12:51:56;;;;;;;11.45;10.35;;;22.00;98.50;;;;;;5017272;28;20022;-86
2022/06/05 12:54:40;;;;;;;11.02;9.95;;;22.00;98.70;;;;;;4997133;28;20482;-86
2022/06/05 12:57:16;;;;;;;11.30;10.20;;;22.00;99.10;;;;;;4997492;28;20026;-86
2022/06/05 13:00:22;;;;;;;10.48;9.48;;;22.00;99.20;;;;;;5014872;28;20034;-85
2022/06/05 13:02:58;;;;;;;10.65;9.65;;;22.00;99.30;;;;;;4998180;28;20113;-87
2022/06/05 13:05:43;;;;;;;11.48;10.25;;;22.00;99.50;;;;;;4998661;28;20036;-87
2022/06/05 13:08:17;;;;;;;11.48;10.38;;;22.00;99.80;;;;;;5015856;28;20077;-86
2022/06/05 13:10:51;;;;;;;12.23;9.05;;;22.00;99.90;;;;;;5016743;28;20044;-86
2022/06/05 13:13:40;;;;;;;12.23;11.02;;;22.00;99.90;;;;;;4997073;28;20010;-86
2022/06/05 13:16:16;;;;;;;11.05;10.02;;;21.90;99.90;;;;;;5012069;28;20041;-86
2022/06/05 13:19:03;;;;;;;11.70;10.60;;;22.00;99.90;;;;;;4996928;28;20186;-86
2022/06/05 13:21:35;;;;;;;10.70;9.60;;;22.00;99.90;;;;;;4998424;28;20061;-86
2022/06/05 13:24:22;;;;;;;11.30;10.20;;;22.00;99.90;;;;;;5015782;28;20022;-86
2022/06/05 13:27:03;;;;;;;11.32;10.10;;;22.00;99.90;;;;;;5024616;28;20034;-86
2022/06/05 13:29:40;;;;;;;;;;;22.00;99.90;;;;;;5013058;28;20038;-86
2022/06/05 13:32:29;;;;;;;10.15;9.15;;;22.00;99.90;;;;;;5025511;28;19913;-87
2022/06/05 13:35:35;;;;;;;11.23;9.55;;;21.90;99.90;;;;;;5014482;28;20394;-86
2022/06/05 13:38:55;;;;;;;12.82;11.45;;;21.90;99.90;;;;;;4990149;28;20049;-88
2022/06/05 13:41:40;;;;;;;10.90;9.10;;;21.90;99.90;;;;;;4973489;28;20093;-88